Terminal Aerodrome Forecast
Issued by NWS

Home | Current Version | Previous Version | Text Only | Print | Product List | Glossary On
Versions: 1 2 3 4 5 6 7 8 9 10 11 12 13 14 15 16 17 18 19 20 21 22 23 24 25 26 27 28 29 30 31 32
000
FTUS43 KFGF 231728
TAFTVF
TAF
KTVF 231728Z 2318/2418 18011KT P6SM OVC090
      TEMPO 2318/2320 5SM -RA BR OVC040
     FM232000 18006KT P6SM OVC050
     FM240300 VRB06KT P6SM OVC025
     FM241000 36009KT P6SM SCT015=

USA.gov is the U.S. government's official web portal to all federal, state and local government web resources and services.